Latest Weather Observations for Cape Leeuwin

IDW60801

Issued at 2:12 pm WST Tuesday 26 March 2019 (issued every 10 minutes, with the page automatically refreshed every 10 minutes)

About weather observations | Map of weather stations | Latest weather observations for WA | Other Formats
Station Details ID: 009518 Name: CAPE LEEUWIN Lat: -34.37 Lon: 115.14 Height: 13.0 m
Data from the previous 72 hours. | See also: Recent months at Cape Leeuwin
Date/Time
WST
Temp
°C
App
Temp
°C
Dew
Point
°C
Rel
Hum
%
Delta-T
°C
Wind Press
QNH
hPa
Press
MSL
hPa
Rain since
9am
mm
Dir  Spd
km/h
Gust
km/h
Spd
kts
Gust
kts
26/02:00pm 22.4 21.6 15.0 63 4.4 SSW 13 15 7 8 1017.6 1017.5 0.0
26/01:30pm 22.3 21.3 14.5 61 4.6 SE 13 19 7 10 1017.7 1017.6 0.0
26/01:00pm 23.6 22.5 15.4 60 4.9 SE 15 20 8 11 1018.0 1017.9 0.0
26/12:30pm 23.7 22.1 12.7 50 6.3 SE 13 17 7 9 1018.3 1018.2 0.0
26/12:00pm 23.2 21.4 13.3 53 5.7 SW 15 20 8 11 1018.6 1018.5 0.0
26/11:30am 24.5 19.0 9.2 37 8.3 NE 28 37 15 20 1018.5 1018.4 0.0
26/11:00am 22.6 16.7 8.9 41 7.3 NE 30 39 16 21 1018.8 1018.8 0.0
26/10:30am 21.6 14.7 9.0 44 6.7 NE 35 46 19 25 1018.9 1018.9 0.0
26/10:00am 19.6 11.9 8.7 49 5.7 NNE 39 52 21 28 1019.4 1019.4 0.0
26/09:30am 18.5 10.8 8.6 52 5.1 NE 39 54 21 29 1019.4 1019.4 0.0
26/09:00am 16.9 8.9 8.9 59 4.1 NE 41 54 22 29 1019.7 1019.7 0.0
26/08:30am 16.2 8.6 9.0 62 3.7 NE 39 54 21 29 1019.7 1019.7 0.0
26/08:00am 15.6 8.1 9.4 66 3.2 NE 39 54 21 29 1020.1 1020.1 0.0
26/07:30am 14.9 7.0 9.2 68 2.9 NE 41 52 22 28 1019.9 1019.9 0.0
26/07:00am 14.0 7.2 9.3 73 2.4 NE 35 46 19 25 1019.8 1019.8 0.0
26/06:30am 13.6 5.3 9.5 76 2.1 NE 43 50 23 27 1019.6 1019.6 0.0
26/06:00am 13.8 6.1 10.1 78 1.9 ENE 41 46 22 25 1019.6 1019.6 0.0
26/05:30am 14.3 7.1 10.5 78 2.0 ENE 39 44 21 24 1019.8 1019.8 0.0
26/05:00am 14.7 7.5 10.5 76 2.2 ENE 39 44 21 24 1019.7 1019.7 0.0
26/04:30am 15.0 7.4 10.4 74 2.4 ENE 41 46 22 25 1019.8 1019.8 0.0
26/04:00am 15.1 7.2 10.7 75 2.3 ENE 43 46 23 25 1019.8 1019.8 0.0
26/03:30am 15.4 7.5 10.9 74 2.4 ENE 43 46 23 25 1020.0 1020.0 0.0
26/03:00am 15.6 7.5 10.7 72 2.6 ENE 44 50 24 27 1019.8 1019.8 0.0
26/02:30am 15.8 7.9 10.9 72 2.6 ENE 43 46 23 25 1020.2 1020.2 0.0
26/02:00am 15.9 9.3 11.2 73 2.5 ENE 37 43 20 23 1020.7 1020.7 0.0
26/01:30am 16.3 9.7 11.5 73 2.6 ENE 37 43 20 23 1020.7 1020.7 0.0
26/01:00am 16.8 10.7 11.8 72 2.7 ENE 35 41 19 22 1020.7 1020.7 0.0
26/12:30am 17.3 10.8 11.6 69 3.1 ENE 37 43 20 23 1020.8 1020.8 0.0
26/12:00am 17.5 10.8 12.4 72 2.8 E 39 43 21 23 1020.7 1020.7 0.0
 
Date/Time
WST
Temp
°C
App
Temp
°C
Dew
Point
°C
Rel
Hum
%
Delta-T
°C
Wind Press
QNH
hPa
Press
MSL
hPa
Rain since
9am
mm
Dir  Spd
km/h
Gust
km/h
Spd
kts
Gust
kts
25/11:30pm 17.5 11.9 13.2 76 2.4 E 35 41 19 22 1021.1 1021.1 0.0
25/11:00pm 17.5 11.2 13.4 77 2.3 E 39 46 21 25 1021.0 1021.0 0.0
25/10:30pm 17.6 11.2 13.3 76 2.4 ESE 39 44 21 24 1021.3 1021.3 0.0
25/10:00pm 17.7 11.6 14.0 79 2.1 ESE 39 46 21 25 1021.4 1021.4 0.0
25/09:30pm 17.9 10.8 13.5 75 2.5 ESE 43 52 23 28 1021.2 1021.2 0.0
25/09:00pm 17.9 11.3 13.7 76 2.4 ESE 41 50 22 27 1021.3 1021.3 0.0
25/08:30pm 18.2 11.0 13.6 74 2.6 ESE 44 56 24 30 1021.1 1021.1 0.0
25/08:00pm 18.3 11.3 14.3 77 2.3 ESE 44 59 24 32 1020.9 1020.9 0.0
25/07:30pm 18.2 10.8 14.2 77 2.3 SE 46 57 25 31 1021.0 1021.0 0.0
25/07:00pm 18.2 11.1 14.0 76 2.4 SE 44 57 24 31 1020.9 1020.9 0.0
25/06:30pm 18.2 11.7 14.0 76 2.4 SE 41 52 22 28 1020.9 1020.9 0.0
25/06:00pm 18.3 11.3 13.7 74 2.6 SE 43 54 23 29 1020.9 1020.9 0.0
25/05:41pm 18.3 11.6 13.3 72 2.8 SE 41 59 22 32 1021.0 1021.0 0.0
25/05:30pm 18.6 12.4 13.7 73 2.8 SE 39 50 21 27 1021.1 1021.1 0.0
25/05:00pm 18.9 12.1 13.2 69 3.2 SE 41 50 22 27 1021.1 1021.1 0.0
25/04:30pm 19.1 12.5 12.7 66 3.6 SE 39 48 21 26 1021.0 1021.0 0.0
25/04:00pm 19.5 13.8 12.9 65 3.7 SE 35 46 19 25 1021.0 1021.0 0.0
25/03:30pm 19.6 13.7 12.4 63 4.0 SE 35 46 19 25 1021.0 1021.0 0.0
25/03:00pm 19.5 13.4 11.9 61 4.2 SE 35 46 19 25 1021.0 1021.0 0.0
25/02:30pm 20.1 14.3 11.4 57 4.8 SE 33 44 18 24 1021.1 1021.1 0.0
25/02:00pm 19.5 13.4 10.6 56 4.8 SE 33 43 18 23 1021.4 1021.4 0.0
25/01:30pm 19.6 13.5 10.3 55 5.0 SE 33 41 18 22 1021.9 1021.9 0.0
25/01:00pm 18.8 12.8 10.2 57 4.6 SE 32 43 17 23 1021.8 1021.8 0.0
25/12:30pm 18.8 13.1 9.7 55 4.8 SE 30 39 16 21 1022.3 1022.3 0.0
25/12:00pm 17.8 11.5 9.1 56 4.5 ESE 32 43 17 23 1022.5 1022.5 0.0
25/11:30am 17.9 12.0 9.0 56 4.6 ESE 30 39 16 21 1022.9 1022.9 0.0
25/11:00am 17.5 10.9 8.7 56 4.5 ESE 33 41 18 22 1023.5 1023.5 0.0
25/10:30am 17.2 10.7 8.8 57 4.3 ESE 33 41 18 22 1023.8 1023.8 0.0
25/10:00am 16.9 10.4 8.0 55 4.5 E 32 39 17 21 1024.3 1024.3 0.0
25/09:30am 15.9 9.1 7.9 59 4.0 E 33 41 18 22 1024.4 1024.4 0.0
25/09:00am 15.7 8.8 8.8 63 3.5 E 35 41 19 22 1024.6 1024.6 0.0
25/08:30am 15.4 8.3 8.2 62 3.6 E 35 41 19 22 1024.5 1024.5 0.0
25/08:00am 14.9 7.5 8.3 64 3.3 E 37 44 20 24 1024.3 1024.3 0.0
25/07:30am 15.1 7.8 8.8 66 3.2 E 37 44 20 24 1024.1 1024.1 0.0
25/07:00am 14.8 7.2 8.9 68 3.0 E 39 46 21 25 1023.7 1023.7 0.0
25/06:30am 14.5 6.0 8.7 68 2.9 E 43 54 23 29 1023.4 1023.4 0.0
25/06:00am 14.5 6.3 8.3 66 3.1 E 41 50 22 27 1023.1 1023.1 0.0
25/05:30am 14.6 5.9 8.4 66 3.1 E 44 52 24 28 1022.8 1022.8 0.0
25/05:00am 14.6 5.9 8.6 67 3.0 E 44 56 24 30 1022.6 1022.6 0.0
25/04:30am 14.7 6.2 8.5 66 3.1 E 43 59 23 32 1022.1 1022.1 0.0
25/04:27am 14.8 6.8 9.1 68 2.9 E 41 59 22 32 1022.1 1022.1 0.0
25/04:00am 14.9 6.4 9.4 69 2.8 E 44 54 24 29 1022.3 1022.3 0.0
25/03:30am 15.0 6.0 8.9 67 3.1 ESE 46 54 25 29 1022.1 1022.1 0.0
25/03:00am 15.1 6.7 8.8 66 3.2 ESE 43 57 23 31 1022.0 1022.0 0.0
25/02:30am 15.0 6.6 8.9 67 3.1 ESE 43 54 23 29 1022.3 1022.3 0.0
25/02:00am 14.9 6.3 8.8 67 3.1 E 44 57 24 31 1022.4 1022.4 0.0
25/01:30am 15.4 7.4 9.1 66 3.2 E 41 50 22 27 1022.7 1022.7 0.0
25/01:00am 15.5 7.2 9.5 67 3.1 E 43 50 23 27 1022.7 1022.7 0.0
25/12:30am 15.5 7.4 8.8 64 3.4 ESE 41 50 22 27 1022.7 1022.7 0.0
25/12:00am 15.5 7.5 9.0 65 3.3 ESE 41 48 22 26 1022.7 1022.7 0.0
 
Date/Time
WST
Temp
°C
App
Temp
°C
Dew
Point
°C
Rel
Hum
%
Delta-T
°C
Wind Press
QNH
hPa
Press
MSL
hPa
Rain since
9am
mm
Dir  Spd
km/h
Gust
km/h
Spd
kts
Gust
kts
24/11:30pm 15.6 8.6 9.8 68 3.0 E 37 46 20 25 1023.0 1023.0 0.0
24/11:00pm 15.9 8.5 9.7 66 3.2 ESE 39 46 21 25 1023.0 1023.0 0.0
24/10:30pm 16.2 8.9 10.3 68 3.1 E 39 46 21 25 1023.1 1023.1 0.0
24/10:00pm 16.5 9.4 9.6 63 3.6 ESE 37 48 20 26 1022.8 1022.8 0.0
24/09:30pm 16.1 8.3 8.2 59 4.0 ESE 39 46 21 25 1022.7 1022.7 0.0
24/09:00pm 16.4 10.0 9.2 62 3.7 ESE 33 44 18 24 1022.5 1022.5 0.0
24/08:30pm 16.5 9.2 8.9 61 3.9 ESE 37 54 20 29 1022.2 1022.2 0.0
24/08:00pm 16.4 9.1 8.8 60 3.9 SE 37 50 20 27 1022.0 1022.0 0.0
24/07:30pm 16.3 9.2 8.2 58 4.1 SE 35 48 19 26 1021.9 1021.9 0.0
24/07:00pm 16.5 10.2 9.6 63 3.6 SE 33 44 18 24 1021.9 1021.9 0.0
24/06:30pm 16.6 10.2 9.2 61 3.8 SE 33 44 18 24 1021.7 1021.7 0.0
24/06:00pm 16.7 9.9 9.4 62 3.8 SE 35 44 19 24 1021.6 1021.6 0.0
24/05:30pm 16.7 10.5 9.4 62 3.8 SE 32 43 17 23 1021.2 1021.2 0.0
24/05:00pm 16.8 9.9 8.8 59 4.1 SE 35 46 19 25 1021.1 1021.1 0.0
24/04:30pm 17.1 10.3 9.2 59 4.1 SE 35 44 19 24 1021.0 1021.0 0.0
24/04:00pm 17.5 10.9 9.9 61 4.0 SE 35 44 19 24 1020.8 1020.8 0.0
24/03:30pm 17.2 11.2 10.0 62 3.8 SE 32 43 17 23 1020.8 1020.8 0.0
24/03:00pm 17.6 11.3 8.9 56 4.5 SE 32 39 17 21 1020.7 1020.7 0.0
24/02:30pm 18.0 11.5 8.2 52 5.0 SSE 32 43 17 23 1020.9 1020.9 0.0
24/02:00pm 18.8 12.3 8.3 50 5.4 SE 32 39 17 21 1021.1 1021.1 0.0
24/01:30pm 19.1 13.4 8.2 49 5.6 SSE 28 37 15 20 1021.3 1021.3 0.0
24/01:00pm 19.5 13.7 8.0 47 5.9 SSE 28 35 15 19 1021.5 1021.5 0.0
24/12:30pm 18.5 11.9 8.4 51 5.2 SSE 33 41 18 22 1021.7 1021.7 0.0
24/12:00pm 18.6 12.7 9.2 54 4.9 SE 30 41 16 22 1021.8 1021.8 0.0
24/11:30am 18.3 13.6 9.3 55 4.7 SSE 24 32 13 17 1021.8 1021.8 0.0
24/11:00am 19.2 13.4 7.8 47 5.8 SE 28 37 15 20 1021.9 1021.9 0.0
24/10:30am 18.5 13.5 9.6 56 4.7 SSE 26 35 14 19 1021.9 1021.9 0.0
24/10:00am 18.0 12.6 9.4 57 4.5 SSE 28 39 15 21 1021.7 1021.7 0.0
24/09:30am 17.6 12.9 10.7 64 3.7 S 26 39 14 21 1021.5 1021.5 0.0
24/09:00am 17.8 14.1 10.3 61 4.0 S 20 26 11 14 1021.1 1021.1 0.0
24/08:30am 17.8 13.0 8.9 56 4.6 SSE 24 35 13 19 1020.9 1020.9 0.0
24/08:00am 17.4 12.1 9.8 61 4.0 SSE 28 37 15 20 1020.6 1020.6 0.0
24/07:30am 17.3 13.6 10.1 62 3.8 S 20 28 11 15 1020.3 1020.3 0.0
24/07:00am 17.1 11.8 9.9 62 3.8 S 28 35 15 19 1020.2 1020.2 0.0
24/06:30am 17.1 11.1 10.1 63 3.7 S 32 41 17 22 1020.0 1020.0 0.0
24/06:00am 16.8 12.9 12.2 74 2.5 S 24 33 13 18 1019.8 1019.8 0.0
24/05:30am 16.9 11.9 12.2 74 2.6 S 30 37 16 20 1019.5 1019.5 0.0
24/05:00am 17.0 11.5 10.6 66 3.4 S 30 37 16 20 1019.2 1019.2 0.0
24/04:30am 16.5 13.3 13.1 80 1.9 S 22 28 12 15 1019.1 1019.1 0.0
24/04:00am 16.9 12.5 12.9 77 2.2 SSW 28 37 15 20 1019.2 1019.2 0.0
24/03:30am 17.1 12.5 10.9 67 3.3 S 26 39 14 21 1019.2 1019.2 0.0
24/03:00am 17.1 12.5 10.9 67 3.3 SSW 26 33 14 18 1019.2 1019.2 0.0
24/02:30am 17.2 11.2 10.2 63 3.7 SSW 32 41 17 22 1019.5 1019.5 0.0
24/02:00am 17.1 12.7 10.5 65 3.5 SSW 24 35 13 19 1019.6 1019.6 0.0
24/01:30am 16.8 10.3 8.8 59 4.1 SSW 33 43 18 23 1019.9 1019.9 0.0
24/01:00am 16.8 11.5 9.9 64 3.6 SW 28 37 15 20 1020.1 1020.1 0.0
24/12:30am 16.4 10.6 9.5 63 3.6 SW 30 39 16 21 1020.1 1020.1 0.0
24/12:00am 16.3 11.3 9.6 64 3.5 SW 26 32 14 17 1020.4 1020.4 0.0
 
Date/Time
WST
Temp
°C
App
Temp
°C
Dew
Point
°C
Rel
Hum
%
Delta-T
°C
Wind Press
QNH
hPa
Press
MSL
hPa
Rain since
9am
mm
Dir  Spd
km/h
Gust
km/h
Spd
kts
Gust
kts
23/11:30pm 16.2 12.2 9.2 63 3.6 SSW 20 28 11 15 1020.4 1020.4 0.0
23/11:00pm 16.4 10.9 9.2 62 3.7 SW 28 35 15 19 1020.4 1020.4 0.0
23/10:30pm 16.3 12.5 9.8 65 3.4 SSW 20 28 11 15 1020.7 1020.7 0.0
23/10:00pm 16.1 11.8 9.3 64 3.5 SW 22 30 12 16 1020.8 1020.8 0.0
23/09:30pm 15.9 12.0 9.3 65 3.4 SSW 20 28 11 15 1020.8 1020.8 0.0
23/09:00pm 15.8 11.0 8.7 62 3.6 SSW 24 33 13 18 1020.7 1020.7 0.0
23/08:30pm 15.5 11.3 8.4 62 3.6 SSW 20 28 11 15 1020.4 1020.4 0.0
23/08:00pm 15.7 11.3 8.8 63 3.5 SSW 22 30 12 16 1020.4 1020.4 0.0
23/07:30pm 15.4 11.3 8.0 61 3.7 SSW 19 24 10 13 1020.1 1020.1 0.0
23/07:00pm 15.5 10.7 7.4 58 4.0 S 22 32 12 17 1020.2 1020.2 0.0
23/06:30pm 15.8 11.1 7.8 59 4.0 S 22 32 12 17 1020.2 1020.2 0.0
23/06:00pm 16.3 11.6 7.7 56 4.3 S 22 32 12 17 1020.2 1020.2 0.0
23/05:30pm 16.9 11.9 8.0 55 4.5 S 24 32 13 17 1020.1 1020.1 0.0
23/05:00pm 16.9 12.2 7.8 55 4.6 SSE 22 30 12 16 1020.0 1020.0 0.0
23/04:30pm 18.2 13.5 7.7 50 5.3 S 22 32 12 17 1020.0 1020.0 0.0
23/04:00pm 18.4 13.6 7.5 49 5.5 S 22 28 12 15 1020.0 1020.0 0.0
23/03:30pm 19.4 15.2 8.1 48 5.8 S 20 28 11 15 1020.0 1020.0 0.0
23/03:00pm 19.2 14.2 7.9 48 5.8 SSE 24 33 13 18 1020.1 1020.1 0.0
23/02:30pm 19.7 14.7 8.0 46 6.0 SSE 24 32 13 17 1020.1 1020.1 0.0

Other formats

Comma delimited format used in spreadsheet applications
http://www.bom.gov.au/fwo/IDW60801/IDW60801.94601.axf

JavaScript Object Notation format (JSON) in row-major order
http://www.bom.gov.au/fwo/IDW60801/IDW60801.94601.json

Data quality

Most of these data are generated automatically and are frequently updated. Quality checks on data are not normally performed. It is possible for incorrect values to appear. Refer to information at About Latest Weather Observations and please check the disclaimer before using these data.